Impacts TAF Board
For situational awareness. Not to be used for flight planning purposes.
IDs:

KLEE - Leesburg Muni, FL, US

Issued at 1736 UTC 30 Jun 2022
Updated at 2153 UTC 30 Jun 2022
Potential Impact None Slight Moderate High
Time2053Z 30/22Z 30/23Z 01/00Z 01/01Z 01/02Z 01/03Z 01/04Z 01/05Z 01/06Z 01/07Z 01/08Z 01/09Z 01/10Z>>
Type OBS PRVL
  [TEMP]  
PRVL
  [TEMP]  
PRVL PRVL PRVL PRVL PRVL PRVL PRVL PRVL PRVL PRVL PRVL
VIS -- >6
  [3]  
>6
  [3]  
>6 >6 >6 >6 >6 >6 >6 >6 >6 >6 >6
CIG -- 60
  [30]  
60
  [30]  
60 140 140 140 140 140 140 140 140 140 140
Cover -- OVC
  [BKN]  
OVC
  [BKN]  
OVC BKN BKN BKN BKN BKN BKN BKN BKN BKN BKN
FltCat VFR VFR
  [MVFR]  
VFR
  [MVFR]  
VFR VFR VFR VFR VFR VFR VFR VFR VFR VFR VFR
WX -- VCTS
  [TSRA]  
VCTS
  [TSRA]  
VCTS VCSH VCSH VCSH VCSH -- -- -- -- -- --
WDir 70 100
[100]
100
[100]
100 130 130 130 130 160 160 160 160 160 160
WSpd 9 7
  [7]  
7
  [7]  
7 4 4 4 4 4 4 4 4 4 4
WGst -- --
  [--]  
--
  [--]  
-- -- -- -- -- -- -- -- -- -- --
WSHgt -- --
[--]
--
[--]
-- -- -- -- -- -- -- -- -- -- --
WSDir -- --
[--]
--
[--]
-- -- -- -- -- -- -- -- -- -- --
WSSpd -- --
[--]
--
[--]
-- -- -- -- -- -- -- -- -- -- --
Raw TAF
KLEE 301736Z 3018/0118 14005KT P6SM VCSH SCT030 BKN050 BKN120
  FM302000 10007KT P6SM VCTS SCT035CB BKN060 OVC120
  TEMPO 3021/3024 3SM TSRA BKN030CB
  FM010100 13004KT P6SM VCSH SCT080 BKN140
  FM010500 16004KT P6SM SCT080 BKN140
  FM011400 16006KT P6SM SCT035 SCT080 BKN200


Raw METAR
KLEE 302053Z 07009KT 29/21 A3008 RMK AO2 SLP183 T02890211 58001 $
KLEE 301953Z 04015G22KT 29/23 A3009 RMK AO2 PK WND 05027/1941 WSHFT 1930 LTG DSNT N-SE SLP187 T02940233 $
KLEE 301950Z 04015G27KT VCTS 29/23 A3009 RMK AO2 PK WND 05027/1941 WSHFT 1930 LTG DSNT N-SE $
KLEE 301911Z 25003KT VCTS 33/22 A3008 RMK AO2 LTG DSNT E T03330217 $
KLEE 301853Z VRB06KT 33/23 A3008 RMK AO2 LTG DSNT N AND E SLP184 T03330228 $

METAR Board
Radar Display
Forecast Discussion
For situational awareness. Not to be used for flight planning purposes.